createdAt,value
2023-04-07T00:00:37.263Z,97244.40
2023-04-07T00:03:19.640Z,97244.04
2023-04-07T00:05:48.189Z,97243.16
2023-04-07T00:08:16.084Z,97246.56
2023-04-07T00:10:44.053Z,97248.27
2023-04-07T00:13:11.889Z,97250.69
2023-04-07T00:15:39.909Z,97249.00
2023-04-07T00:18:07.910Z,97247.16
2023-04-07T00:20:36.031Z,97247.39
2023-04-07T00:23:04.057Z,97246.26
2023-04-07T00:25:31.996Z,97243.06
2023-04-07T00:27:59.917Z,97236.40
2023-04-07T00:30:28.098Z,97235.61
2023-04-07T00:32:57.014Z,97234.29
2023-04-07T00:35:25.035Z,97231.42
2023-04-07T00:37:53.343Z,97234.71
2023-04-07T00:40:21.424Z,97233.69
2023-04-07T00:42:49.388Z,97233.70
2023-04-07T00:45:17.543Z,97231.98
2023-04-07T00:47:45.659Z,97231.81
2023-04-07T00:50:13.708Z,97229.73
2023-04-07T00:52:42.517Z,97233.04
2023-04-07T00:55:10.453Z,97233.19
2023-04-07T00:57:38.405Z,97233.20
2023-04-07T01:00:08.361Z,97234.74
2023-04-07T01:02:49.420Z,97233.60
2023-04-07T01:05:31.060Z,97238.00
2023-04-07T01:08:12.448Z,97236.23
2023-04-07T01:11:04.833Z,97235.17
2023-04-07T01:13:46.362Z,97235.59
2023-04-07T01:16:33.239Z,97236.23
2023-04-07T01:19:13.803Z,97236.90
2023-04-07T01:21:47.394Z,97237.20
2023-04-07T01:24:34.258Z,97239.86
2023-04-07T01:27:42.684Z,97237.02
2023-04-07T01:30:13.514Z,97236.63
2023-04-07T01:32:45.419Z,97235.99
2023-04-07T01:35:14.717Z,97234.16
2023-04-07T01:37:46.729Z,97234.40
2023-04-07T01:40:16.829Z,97237.09
2023-04-07T01:42:47.299Z,97238.40
2023-04-07T01:45:17.523Z,97238.19
2023-04-07T01:47:46.760Z,97235.89
2023-04-07T01:50:16.041Z,97238.00
2023-04-07T01:52:45.006Z,97237.60
2023-04-07T01:55:13.081Z,97238.90
2023-04-07T01:57:49.438Z,97240.89
2023-04-07T02:00:20.240Z,97239.95
2023-04-07T02:02:55.935Z,97239.48
2023-04-07T02:05:26.168Z,97236.86
2023-04-07T02:07:59.920Z,97235.41
2023-04-07T02:10:30.617Z,97236.71
2023-04-07T02:13:04.309Z,97237.67
2023-04-07T02:15:32.496Z,97237.98
2023-04-07T02:18:02.636Z,97237.98
2023-04-07T02:20:31.944Z,97237.97
2023-04-07T02:23:00.697Z,97238.30
2023-04-07T02:25:30.971Z,97237.08
2023-04-07T02:28:01.533Z,97237.45
2023-04-07T02:30:29.532Z,97239.20
2023-04-07T02:32:57.843Z,97242.49
2023-04-07T02:35:25.750Z,97240.13
2023-04-07T02:37:54.005Z,97242.60
2023-04-07T02:40:21.983Z,97243.70
2023-04-07T02:42:49.973Z,97245.14
2023-04-07T02:45:18.026Z,97246.41
2023-04-07T02:47:45.889Z,97248.87
2023-04-07T02:50:13.823Z,97244.96
2023-04-07T02:52:41.834Z,97248.41
2023-04-07T02:55:12.986Z,97249.96
2023-04-07T02:57:41.315Z,97249.05
2023-04-07T03:00:21.197Z,97250.52
2023-04-07T03:02:57.915Z,97250.96
2023-04-07T03:05:27.415Z,97254.35
2023-04-07T03:07:55.419Z,97256.68
2023-04-07T03:10:23.668Z,97256.08
2023-04-07T03:12:52.117Z,97256.37
2023-04-07T03:15:20.052Z,97259.95
2023-04-07T03:17:49.162Z,97259.95
2023-04-07T03:20:17.590Z,97264.05
2023-04-07T03:22:47.598Z,97267.84
2023-04-07T03:25:27.709Z,97266.30
2023-04-07T03:27:56.114Z,97266.34
2023-04-07T03:30:25.780Z,97267.41
2023-04-07T03:32:53.883Z,97267.27
2023-04-07T03:35:21.804Z,97270.17
2023-04-07T03:37:49.760Z,97271.67
2023-04-07T03:40:19.090Z,97273.34
2023-04-07T03:42:47.371Z,97277.92
2023-04-07T03:45:16.635Z,97281.50
2023-04-07T03:47:49.442Z,97283.01
2023-04-07T03:50:17.791Z,97287.25
2023-04-07T03:52:54.151Z,97288.91
2023-04-07T03:55:27.030Z,97295.38
2023-04-07T03:57:58.916Z,97295.16
2023-04-07T04:00:31.900Z,97293.96
2023-04-07T04:03:06.779Z,97291.77
2023-04-07T04:05:35.853Z,97294.73
2023-04-07T04:08:04.613Z,97297.83
2023-04-07T04:10:34.507Z,97296.20
2023-04-07T04:13:06.830Z,97295.44
2023-04-07T04:15:35.548Z,97295.86
2023-04-07T04:18:04.983Z,97299.12
2023-04-07T04:20:33.532Z,97302.45
2023-04-07T04:23:03.297Z,97302.85
2023-04-07T04:25:31.656Z,97302.92
2023-04-07T04:28:00.037Z,97307.31
2023-04-07T04:30:28.188Z,97307.23
2023-04-07T04:32:58.951Z,97306.65
2023-04-07T04:35:34.347Z,97307.11
2023-04-07T04:38:08.692Z,97308.20
2023-04-07T04:40:38.020Z,97308.08
2023-04-07T04:43:07.483Z,97309.08
2023-04-07T04:45:37.119Z,97308.34
2023-04-07T04:48:06.578Z,97309.67
2023-04-07T04:50:34.724Z,97311.83
2023-04-07T04:53:03.147Z,97312.16
2023-04-07T04:55:31.439Z,97311.79
2023-04-07T04:58:00.580Z,97312.52
2023-04-07T05:00:38.937Z,97316.20
2023-04-07T05:03:08.274Z,97317.69
2023-04-07T05:05:39.064Z,97319.46
2023-04-07T05:08:11.291Z,97321.91
2023-04-07T05:10:41.043Z,97324.59
2023-04-07T05:13:12.654Z,97325.51
2023-04-07T05:15:42.475Z,97327.66
2023-04-07T05:18:12.592Z,97328.80
2023-04-07T05:20:41.599Z,97331.95
2023-04-07T05:23:10.038Z,97335.27
2023-04-07T05:25:38.205Z,97333.75
2023-04-07T05:28:06.962Z,97334.91
2023-04-07T05:30:35.461Z,97340.50
2023-04-07T05:33:03.527Z,97340.66
2023-04-07T05:35:39.445Z,97342.40
2023-04-07T05:38:07.642Z,97346.03
2023-04-07T05:40:37.554Z,97348.80
2023-04-07T05:43:07.639Z,97349.65
2023-04-07T05:45:36.901Z,97351.23
2023-04-07T05:48:06.633Z,97353.29
2023-04-07T05:50:40.647Z,97355.84
2023-04-07T05:53:11.984Z,97355.00
2023-04-07T05:55:43.045Z,97354.89
2023-04-07T05:58:13.636Z,97360.65
2023-04-07T06:00:43.142Z,97357.45
2023-04-07T06:03:13.687Z,97359.80
2023-04-07T06:05:52.743Z,97362.44
2023-04-07T06:08:21.981Z,97361.98
2023-04-07T06:10:49.934Z,97363.75
2023-04-07T06:13:18.022Z,97362.20
2023-04-07T06:15:46.622Z,97364.33
2023-04-07T06:18:14.617Z,97367.13
2023-04-07T06:20:42.700Z,97365.51
2023-04-07T06:23:11.739Z,97363.18
2023-04-07T06:25:39.869Z,97363.61
2023-04-07T06:28:08.204Z,97364.60
2023-04-07T06:30:36.379Z,97368.64
2023-04-07T06:33:07.275Z,97367.55
2023-04-07T06:35:35.374Z,97366.70
2023-04-07T06:38:03.436Z,97368.63
2023-04-07T06:40:31.618Z,97370.72
2023-04-07T06:42:59.749Z,97369.29
2023-04-07T06:45:38.695Z,97373.45
2023-04-07T06:48:07.367Z,97374.34
2023-04-07T06:50:35.602Z,97375.05
2023-04-07T06:53:03.798Z,97377.13
2023-04-07T06:55:32.016Z,97380.88
2023-04-07T06:57:59.908Z,97381.97
2023-04-07T07:00:30.376Z,97383.34
2023-04-07T07:02:58.573Z,97386.38
2023-04-07T07:05:27.181Z,97389.30
2023-04-07T07:07:55.471Z,97390.92
2023-04-07T07:10:23.852Z,97388.95
2023-04-07T07:12:52.178Z,97388.11
2023-04-07T07:15:20.516Z,97391.62
2023-04-07T07:17:50.487Z,97391.51
2023-04-07T07:20:23.683Z,97392.07
2023-04-07T07:22:51.750Z,97390.92
2023-04-07T07:25:20.064Z,97394.82
2023-04-07T07:27:53.552Z,97396.64
2023-04-07T07:30:22.844Z,97398.96
2023-04-07T07:32:53.799Z,97395.21
2023-04-07T07:35:22.897Z,97400.80
2023-04-07T07:37:51.814Z,97400.34
2023-04-07T07:40:20.496Z,97403.33
2023-04-07T07:42:48.555Z,97403.48
2023-04-07T07:45:19.685Z,97402.24
2023-04-07T07:47:47.747Z,97406.55
2023-04-07T07:50:15.856Z,97410.34
2023-04-07T07:52:43.893Z,97408.27
2023-04-07T07:55:11.963Z,97409.52
2023-04-07T07:57:40.065Z,97410.06
2023-04-07T08:00:09.127Z,97410.07
2023-04-07T08:02:43.060Z,97411.44
2023-04-07T08:05:11.548Z,97413.33
2023-04-07T08:07:39.696Z,97414.38
2023-04-07T08:10:08.282Z,97417.69
2023-04-07T08:12:36.474Z,97415.13
2023-04-07T08:15:05.134Z,97415.13
2023-04-07T08:17:33.164Z,97419.25
2023-04-07T08:20:01.289Z,97420.60
2023-04-07T08:22:29.584Z,97421.42
2023-04-07T08:24:57.826Z,97420.38
2023-04-07T08:27:26.089Z,97421.27
2023-04-07T08:30:07.073Z,97420.81
2023-04-07T08:32:36.413Z,97415.98
2023-04-07T08:35:05.105Z,97412.90
2023-04-07T08:37:34.514Z,97412.38
2023-04-07T08:40:04.105Z,97413.58
2023-04-07T08:42:34.232Z,97412.89
2023-04-07T08:45:07.626Z,97415.83
2023-04-07T08:47:37.425Z,97414.61
2023-04-07T08:50:08.272Z,97413.59
2023-04-07T08:53:07.457Z,97413.27
2023-04-07T08:55:36.584Z,97410.16
2023-04-07T08:58:05.065Z,97412.23
2023-04-07T09:00:33.261Z,97410.35
2023-04-07T09:03:03.727Z,97409.65
2023-04-07T09:05:32.996Z,97409.63
2023-04-07T09:08:02.738Z,97410.63
2023-04-07T09:10:31.471Z,97409.73
2023-04-07T09:12:59.990Z,97406.57
2023-04-07T09:15:36.724Z,97409.52
2023-04-07T09:18:06.754Z,97406.19
2023-04-07T09:20:57.842Z,97408.59
2023-04-07T09:23:32.776Z,97411.05
2023-04-07T09:26:24.882Z,97410.05
2023-04-07T09:28:59.726Z,97409.84
2023-04-07T09:31:50.175Z,97408.09
2023-04-07T09:34:29.879Z,97407.15
2023-04-07T09:36:58.089Z,97410.77
2023-04-07T09:39:27.252Z,97409.25
2023-04-07T09:41:55.801Z,97409.48
2023-04-07T09:44:25.363Z,97409.34
2023-04-07T09:46:58.134Z,97409.49
2023-04-07T09:49:26.906Z,97409.98
2023-04-07T09:52:00.283Z,97408.27
2023-04-07T09:54:39.692Z,97408.08
2023-04-07T09:57:12.522Z,97407.48
2023-04-07T09:59:44.914Z,97408.09
2023-04-07T10:02:13.264Z,97403.23
2023-04-07T10:04:42.453Z,97408.77
2023-04-07T10:07:11.204Z,97407.05
2023-04-07T10:09:39.354Z,97406.33
2023-04-07T10:12:07.447Z,97409.42
2023-04-07T10:14:37.118Z,97414.15
2023-04-07T10:17:06.616Z,97416.45
2023-04-07T10:19:35.262Z,97420.74
2023-04-07T10:22:06.933Z,97418.10
2023-04-07T10:24:47.264Z,97418.57
2023-04-07T10:27:19.793Z,97420.98
2023-04-07T10:29:51.704Z,97420.25
2023-04-07T10:32:20.127Z,97420.14
2023-04-07T10:34:50.931Z,97422.23
2023-04-07T10:37:21.625Z,97424.98
2023-04-07T10:39:52.106Z,97420.30
2023-04-07T10:42:41.630Z,97424.01
2023-04-07T10:45:10.840Z,97425.96
2023-04-07T10:47:57.784Z,97426.29
2023-04-07T10:50:26.053Z,97425.94
2023-04-07T10:53:08.487Z,97426.20
2023-04-07T10:55:39.287Z,97423.95
2023-04-07T10:58:29.066Z,97426.16
2023-04-07T11:00:57.551Z,97428.52
2023-04-07T11:03:27.151Z,97428.89
2023-04-07T11:06:15.025Z,97429.14
2023-04-07T11:08:47.538Z,97436.48
2023-04-07T11:11:34.812Z,97432.27
2023-04-07T11:14:03.234Z,97431.89
2023-04-07T11:16:39.665Z,97436.25
2023-04-07T11:19:08.090Z,97435.04
2023-04-07T11:21:37.261Z,97433.86
2023-04-07T11:24:05.994Z,97440.45
2023-04-07T11:26:39.612Z,97436.94
2023-04-07T11:29:08.223Z,97439.58
2023-04-07T11:31:37.134Z,97437.15
2023-04-07T11:34:05.710Z,97442.05
2023-04-07T11:36:35.940Z,97441.31
2023-04-07T11:39:04.561Z,97440.37
2023-04-07T11:41:34.290Z,97443.42
2023-04-07T11:44:12.951Z,97444.66
2023-04-07T11:47:01.026Z,97446.38
2023-04-07T11:49:29.441Z,97444.61
2023-04-07T11:52:07.013Z,97443.44
2023-04-07T11:54:52.270Z,97445.66
2023-04-07T11:57:28.512Z,97444.46
2023-04-07T12:00:11.042Z,97443.77
2023-04-07T12:02:39.540Z,97441.86
2023-04-07T12:05:10.928Z,97443.76
2023-04-07T12:07:41.952Z,97443.19
2023-04-07T12:10:25.801Z,97445.52
2023-04-07T12:12:54.143Z,97445.08
2023-04-07T12:15:22.924Z,97446.33
2023-04-07T12:17:51.214Z,97446.83
2023-04-07T12:20:19.443Z,97445.31
2023-04-07T12:22:47.484Z,97446.86
2023-04-07T12:25:15.694Z,97449.38
2023-04-07T12:27:44.122Z,97448.90
2023-04-07T12:30:13.637Z,97450.83
2023-04-07T12:32:42.026Z,97451.27
2023-04-07T12:35:10.187Z,97453.58
2023-04-07T12:37:38.910Z,97455.99
2023-04-07T12:40:07.914Z,97452.86
2023-04-07T12:42:35.933Z,97453.66
2023-04-07T12:45:04.430Z,97451.59
2023-04-07T12:47:32.618Z,97449.88
2023-04-07T12:50:01.654Z,97449.96
2023-04-07T12:52:29.904Z,97452.73
2023-04-07T12:54:58.794Z,97453.71
2023-04-07T12:57:27.742Z,97455.08
2023-04-07T12:59:55.899Z,97454.67
2023-04-07T13:02:25.118Z,97454.91
2023-04-07T13:04:53.564Z,97454.38
2023-04-07T13:07:22.251Z,97453.61
2023-04-07T13:09:50.528Z,97454.00
2023-04-07T13:12:18.808Z,97451.89
2023-04-07T13:14:59.324Z,97450.64
2023-04-07T13:17:29.216Z,97452.93
2023-04-07T13:19:57.529Z,97456.79
2023-04-07T13:22:25.794Z,97457.00
2023-04-07T13:24:54.078Z,97466.06
2023-04-07T13:27:22.232Z,97467.68
2023-04-07T13:29:50.391Z,97466.91
2023-04-07T13:32:18.800Z,97468.05
2023-04-07T13:34:49.273Z,97468.09
2023-04-07T13:37:19.467Z,97469.63
2023-04-07T13:39:47.730Z,97471.02
2023-04-07T13:42:20.640Z,97469.98
2023-04-07T13:44:50.842Z,97474.23
2023-04-07T13:47:20.821Z,97474.47
2023-04-07T13:49:49.585Z,97473.13
2023-04-07T13:52:19.088Z,97474.13
2023-04-07T13:54:48.093Z,97481.04
2023-04-07T13:57:20.991Z,97480.36
2023-04-07T13:59:52.519Z,97481.97
2023-04-07T14:02:21.670Z,97482.67
2023-04-07T14:04:50.420Z,97480.42
2023-04-07T14:07:18.668Z,97486.33
2023-04-07T14:09:49.414Z,97487.90
2023-04-07T14:12:17.431Z,97490.34
2023-04-07T14:14:45.922Z,97491.39
2023-04-07T14:17:14.150Z,97489.48
2023-04-07T14:19:42.620Z,97491.38
2023-04-07T14:22:11.630Z,97491.03
2023-04-07T14:24:39.772Z,97492.77
2023-04-07T14:27:07.816Z,97497.64
2023-04-07T14:29:36.030Z,97496.77
2023-04-07T14:32:04.090Z,97497.46
2023-04-07T14:34:32.320Z,97495.05
2023-04-07T14:37:00.329Z,97495.06
2023-04-07T14:39:29.485Z,97494.39
2023-04-07T14:41:57.549Z,97498.05
2023-04-07T14:44:25.798Z,97500.64
2023-04-07T14:46:54.090Z,97502.36
2023-04-07T14:49:22.532Z,97502.20
2023-04-07T14:51:50.777Z,97504.27
2023-04-07T14:54:19.153Z,97505.15
2023-04-07T14:56:47.541Z,97510.34
2023-04-07T14:59:15.941Z,97514.52
2023-04-07T15:01:44.221Z,97513.13
2023-04-07T15:04:13.707Z,97516.58
2023-04-07T15:06:43.069Z,97520.39
2023-04-07T15:09:11.133Z,97521.08
2023-04-07T15:11:39.454Z,97520.92
2023-04-07T15:14:07.517Z,97522.30
2023-04-07T15:16:35.872Z,97522.65
2023-04-07T15:19:04.120Z,97520.91
2023-04-07T15:21:32.466Z,97522.11
2023-04-07T15:24:00.703Z,97524.36
2023-04-07T15:26:28.776Z,97519.87
2023-04-07T15:28:56.913Z,97524.54
2023-04-07T15:31:27.181Z,97524.70
2023-04-07T15:33:56.021Z,97529.54
2023-04-07T15:36:24.049Z,97532.63
2023-04-07T15:38:52.014Z,97532.96
2023-04-07T15:41:20.054Z,97533.29
2023-04-07T15:43:48.362Z,97534.84
2023-04-07T15:46:16.686Z,97537.61
2023-04-07T15:48:44.727Z,97538.81
2023-04-07T15:51:12.831Z,97536.39
2023-04-07T15:53:40.982Z,97538.46
2023-04-07T15:56:11.927Z,97543.83
2023-04-07T15:58:41.288Z,97547.98
2023-04-07T16:01:09.445Z,97547.09
2023-04-07T16:03:37.841Z,97549.17
2023-04-07T16:06:05.996Z,97550.06
2023-04-07T16:08:34.088Z,97549.90
2023-04-07T16:11:02.394Z,97550.93
2023-04-07T16:13:30.372Z,97558.20
2023-04-07T16:15:58.500Z,97557.33
2023-04-07T16:18:26.473Z,97560.09
2023-04-07T16:20:54.527Z,97564.04
2023-04-07T16:23:22.510Z,97566.59
2023-04-07T16:25:50.702Z,97566.05
2023-04-07T16:28:18.877Z,97566.87
2023-04-07T16:30:46.976Z,97566.48
2023-04-07T16:33:15.616Z,97570.76
2023-04-07T16:35:43.996Z,97574.00
2023-04-07T16:38:12.871Z,97578.63
2023-04-07T16:40:44.096Z,97581.35
2023-04-07T16:43:15.945Z,97586.52
2023-04-07T16:45:50.288Z,97587.70
2023-04-07T16:48:19.348Z,97589.91
2023-04-07T16:50:47.431Z,97589.33
2023-04-07T16:53:15.294Z,97590.48
2023-04-07T16:55:43.253Z,97593.02
2023-04-07T16:58:11.875Z,97592.95
2023-04-07T17:00:39.772Z,97594.29
2023-04-07T17:03:07.966Z,97596.88
2023-04-07T17:05:36.417Z,97597.38
2023-04-07T17:08:04.673Z,97602.20
2023-04-07T17:10:32.563Z,97606.14
2023-04-07T17:13:00.518Z,97609.56
2023-04-07T17:15:28.559Z,97610.73
2023-04-07T17:17:56.464Z,97614.48
2023-04-07T17:20:24.475Z,97617.72
2023-04-07T17:22:52.761Z,97619.08
2023-04-07T17:25:20.692Z,97620.92
2023-04-07T17:27:48.533Z,97623.66
2023-04-07T17:30:18.286Z,97626.92
2023-04-07T17:32:46.494Z,97628.98
2023-04-07T17:35:14.390Z,97635.20
2023-04-07T17:37:42.511Z,97637.26
2023-04-07T17:40:10.990Z,97638.80
2023-04-07T17:42:39.098Z,97645.85
2023-04-07T17:45:08.392Z,97647.74
2023-04-07T17:47:37.491Z,97650.67
2023-04-07T17:50:06.678Z,97653.45
2023-04-07T17:52:34.557Z,97657.44
2023-04-07T17:55:02.591Z,97663.86
2023-04-07T17:57:30.760Z,97665.61
2023-04-07T17:59:58.708Z,97669.73
2023-04-07T18:02:27.048Z,97670.93
2023-04-07T18:05:00.957Z,97673.85
2023-04-07T18:07:29.509Z,97671.90
2023-04-07T18:09:58.110Z,97674.08
2023-04-07T18:12:26.236Z,97680.05
2023-04-07T18:14:54.630Z,97679.45
2023-04-07T18:17:22.590Z,97679.92
2023-04-07T18:19:51.664Z,97680.93
2023-04-07T18:22:20.024Z,97683.52
2023-04-07T18:24:48.838Z,97687.84
2023-04-07T18:27:16.857Z,97688.52
2023-04-07T18:29:45.107Z,97691.45
2023-04-07T18:32:13.382Z,97694.38
2023-04-07T18:34:41.848Z,97697.64
2023-04-07T18:37:10.038Z,97697.98
2023-04-07T18:39:38.270Z,97698.34
2023-04-07T18:42:06.727Z,97701.30
2023-04-07T18:44:35.198Z,97700.22
2023-04-07T18:47:03.147Z,97702.56
2023-04-07T18:49:31.492Z,97702.66
2023-04-07T18:51:59.985Z,97708.70
2023-04-07T18:54:28.701Z,97708.55
2023-04-07T18:56:58.033Z,97714.08
2023-04-07T18:59:26.825Z,97712.71
2023-04-07T19:01:56.377Z,97714.16
2023-04-07T19:04:25.207Z,97716.66
2023-04-07T19:06:54.353Z,97717.03
2023-04-07T19:09:22.652Z,97716.02
2023-04-07T19:11:51.594Z,97714.98
2023-04-07T19:14:19.678Z,97715.88
2023-04-07T19:16:47.864Z,97712.65
2023-04-07T19:19:17.468Z,97714.09
2023-04-07T19:21:46.497Z,97713.11
2023-04-07T19:24:14.780Z,97715.18
2023-04-07T19:26:43.179Z,97717.95
2023-04-07T19:29:12.633Z,97721.25
2023-04-07T19:31:40.981Z,97720.15
2023-04-07T19:34:09.174Z,97720.80
2023-04-07T19:36:37.100Z,97721.30
2023-04-07T19:39:05.543Z,97723.67
2023-04-07T19:41:33.575Z,97725.04
2023-04-07T19:44:01.814Z,97727.13
2023-04-07T19:46:29.930Z,97727.11
2023-04-07T19:48:57.807Z,97727.48
2023-04-07T19:51:26.038Z,97725.23
2023-04-07T19:53:54.090Z,97728.21
2023-04-07T19:56:21.972Z,97730.14
2023-04-07T19:58:50.091Z,97730.70
2023-04-07T20:01:18.712Z,97729.52
2023-04-07T20:03:46.948Z,97729.83
2023-04-07T20:06:15.345Z,97729.48
2023-04-07T20:08:43.807Z,97730.85
2023-04-07T20:11:13.385Z,97732.91
2023-04-07T20:13:42.684Z,97731.15
2023-04-07T20:16:10.788Z,97731.42
2023-04-07T20:18:38.704Z,97735.15
2023-04-07T20:21:07.053Z,97732.52
2023-04-07T20:23:35.016Z,97732.67
2023-04-07T20:26:03.330Z,97733.36
2023-04-07T20:28:31.395Z,97738.21
2023-04-07T20:30:59.420Z,97736.48
2023-04-07T20:33:27.371Z,97737.88
2023-04-07T20:35:55.602Z,97735.80
2023-04-07T20:38:23.504Z,97736.34
2023-04-07T20:40:52.114Z,97737.02
2023-04-07T20:43:22.115Z,97737.86
2023-04-07T20:45:50.283Z,97738.85
2023-04-07T20:48:23.893Z,97739.10
2023-04-07T20:50:52.248Z,97742.13
2023-04-07T20:53:20.592Z,97743.79
2023-04-07T20:55:48.579Z,97742.48
2023-04-07T20:58:17.843Z,97746.27
2023-04-07T21:00:46.749Z,97745.54
2023-04-07T21:03:14.958Z,97748.14
2023-04-07T21:05:45.114Z,97747.45
2023-04-07T21:08:14.624Z,97748.32
2023-04-07T21:10:42.885Z,97750.77
2023-04-07T21:13:10.840Z,97755.60
2023-04-07T21:15:38.899Z,97756.98
2023-04-07T21:18:06.924Z,97756.11
2023-04-07T21:20:37.282Z,97752.48
2023-04-07T21:23:07.947Z,97752.84
2023-04-07T21:25:39.272Z,97756.83
2023-04-07T21:28:07.420Z,97756.51
2023-04-07T21:30:35.648Z,97758.77
2023-04-07T21:33:03.618Z,97754.48
2023-04-07T21:35:31.560Z,97754.95
2023-04-07T21:37:59.420Z,97756.30
2023-04-07T21:40:27.309Z,97756.10
2023-04-07T21:42:55.113Z,97758.48
2023-04-07T21:45:23.350Z,97758.59
2023-04-07T21:47:51.239Z,97757.70
2023-04-07T21:50:19.171Z,97756.48
2023-04-07T21:52:50.767Z,97758.17
2023-04-07T21:55:19.197Z,97760.38
2023-04-07T21:57:47.370Z,97763.98
2023-04-07T22:00:16.553Z,97761.75
2023-04-07T22:02:46.677Z,97761.95
2023-04-07T22:05:15.203Z,97759.74
2023-04-07T22:07:43.105Z,97764.06
2023-04-07T22:10:11.705Z,97764.98
2023-04-07T22:12:39.719Z,97766.05
2023-04-07T22:15:09.119Z,97769.38
2023-04-07T22:17:37.043Z,97769.59
2023-04-07T22:20:06.376Z,97771.39
2023-04-07T22:22:34.299Z,97769.58
2023-04-07T22:25:02.257Z,97767.21
2023-04-07T22:27:30.180Z,97767.98
2023-04-07T22:29:58.160Z,97767.33
2023-04-07T22:32:26.415Z,97767.74
2023-04-07T22:34:54.757Z,97769.84
2023-04-07T22:37:22.650Z,97770.36
2023-04-07T22:39:51.107Z,97766.75
2023-04-07T22:42:18.980Z,97766.05
2023-04-07T22:44:46.933Z,97769.30
2023-04-07T22:47:14.861Z,97767.20
2023-04-07T22:49:42.708Z,97768.74
2023-04-07T22:52:10.645Z,97765.59
2023-04-07T22:54:39.120Z,97763.63
2023-04-07T22:57:07.196Z,97763.36
2023-04-07T22:59:35.251Z,97764.37
2023-04-07T23:02:03.231Z,97763.14
2023-04-07T23:04:31.258Z,97764.34
2023-04-07T23:06:59.290Z,97763.51
2023-04-07T23:09:27.794Z,97760.95
2023-04-07T23:11:57.142Z,97761.99
2023-04-07T23:14:25.105Z,97761.87
2023-04-07T23:16:54.997Z,97760.71
2023-04-07T23:19:23.355Z,97759.55
2023-04-07T23:21:52.278Z,97763.73
2023-04-07T23:24:20.211Z,97763.11
2023-04-07T23:26:48.160Z,97761.39
2023-04-07T23:29:16.355Z,97761.08
2023-04-07T23:31:44.407Z,97763.50
2023-04-07T23:34:12.251Z,97763.83
2023-04-07T23:36:40.836Z,97763.23
2023-04-07T23:39:08.779Z,97763.12
2023-04-07T23:41:37.135Z,97765.64
2023-04-07T23:44:05.767Z,97768.54
2023-04-07T23:46:34.101Z,97768.81
2023-04-07T23:49:02.140Z,97767.14
2023-04-07T23:51:30.805Z,97765.63
2023-04-07T23:53:58.735Z,97769.85
2023-04-07T23:56:27.759Z,97768.73
2023-04-07T23:58:56.034Z,97768.98
